sensor_id;sensor_type;location;lat;lon;timestamp;P1;durP1;ratioP1;P2;durP2;ratioP2
22851;SDS011;11592;45.460;9.240;2022-09-01T00:02:28;16.17;;;9.73;;
22851;SDS011;11592;45.460;9.240;2022-09-01T00:04:55;16.52;;;10.35;;
22851;SDS011;11592;45.460;9.240;2022-09-01T00:07:25;14.45;;;10.30;;
22851;SDS011;11592;45.460;9.240;2022-09-01T00:09:55;13.85;;;10.00;;
22851;SDS011;11592;45.460;9.240;2022-09-01T00:12:22;11.20;;;9.15;;
22851;SDS011;11592;45.460;9.240;2022-09-01T00:14:50;12.02;;;8.23;;
22851;SDS011;11592;45.460;9.240;2022-09-01T00:17:18;11.63;;;8.45;;
22851;SDS011;11592;45.460;9.240;2022-09-01T00:19:44;10.63;;;8.02;;
22851;SDS011;11592;45.460;9.240;2022-09-01T00:22:11;12.35;;;8.75;;
22851;SDS011;11592;45.460;9.240;2022-09-01T00:24:38;12.90;;;8.57;;
22851;SDS011;11592;45.460;9.240;2022-09-01T00:27:05;11.23;;;8.15;;
22851;SDS011;11592;45.460;9.240;2022-09-01T00:29:32;12.70;;;8.80;;
22851;SDS011;11592;45.460;9.240;2022-09-01T00:31:59;11.18;;;8.43;;
22851;SDS011;11592;45.460;9.240;2022-09-01T00:34:26;11.20;;;7.90;;
22851;SDS011;11592;45.460;9.240;2022-09-01T00:36:52;10.63;;;8.25;;
22851;SDS011;11592;45.460;9.240;2022-09-01T00:39:19;11.85;;;8.60;;
22851;SDS011;11592;45.460;9.240;2022-09-01T00:41:46;11.52;;;8.65;;
22851;SDS011;11592;45.460;9.240;2022-09-01T00:44:16;11.10;;;8.85;;
22851;SDS011;11592;45.460;9.240;2022-09-01T00:46:50;12.75;;;8.90;;
22851;SDS011;11592;45.460;9.240;2022-09-01T00:52:07;10.85;;;8.40;;
22851;SDS011;11592;45.460;9.240;2022-09-01T00:54:38;13.80;;;9.00;;
22851;SDS011;11592;45.460;9.240;2022-09-01T00:57:08;12.68;;;9.43;;
22851;SDS011;11592;45.460;9.240;2022-09-01T00:59:38;12.30;;;8.93;;
22851;SDS011;11592;45.460;9.240;2022-09-01T01:02:25;13.82;;;10.13;;
22851;SDS011;11592;45.460;9.240;2022-09-01T01:04:53;14.23;;;10.65;;
22851;SDS011;11592;45.460;9.240;2022-09-01T01:07:21;15.35;;;10.60;;
22851;SDS011;11592;45.460;9.240;2022-09-01T01:09:48;14.32;;;10.50;;
22851;SDS011;11592;45.460;9.240;2022-09-01T01:12:16;12.52;;;9.50;;
22851;SDS011;11592;45.460;9.240;2022-09-01T01:14:44;11.98;;;9.82;;
22851;SDS011;11592;45.460;9.240;2022-09-01T01:17:16;14.77;;;10.43;;
22851;SDS011;11592;45.460;9.240;2022-09-01T01:19:46;12.57;;;9.77;;
22851;SDS011;11592;45.460;9.240;2022-09-01T01:25:34;12.40;;;9.23;;
22851;SDS011;11592;45.460;9.240;2022-09-01T01:28:26;14.50;;;9.20;;
22851;SDS011;11592;45.460;9.240;2022-09-01T01:33:28;8.73;;;7.43;;
22851;SDS011;11592;45.460;9.240;2022-09-01T01:36:09;10.80;;;7.88;;
22851;SDS011;11592;45.460;9.240;2022-09-01T01:38:43;11.95;;;7.00;;
22851;SDS011;11592;45.460;9.240;2022-09-01T01:41:12;10.05;;;7.68;;
22851;SDS011;11592;45.460;9.240;2022-09-01T01:43:40;10.18;;;7.03;;
22851;SDS011;11592;45.460;9.240;2022-09-01T01:46:09;8.05;;;6.88;;
22851;SDS011;11592;45.460;9.240;2022-09-01T01:48:38;8.38;;;6.88;;
22851;SDS011;11592;45.460;9.240;2022-09-01T01:51:07;8.23;;;6.40;;
22851;SDS011;11592;45.460;9.240;2022-09-01T01:53:37;11.80;;;6.40;;
22851;SDS011;11592;45.460;9.240;2022-09-01T01:56:04;9.95;;;6.60;;
22851;SDS011;11592;45.460;9.240;2022-09-01T01:58:31;7.13;;;5.65;;
22851;SDS011;11592;45.460;9.240;2022-09-01T02:00:59;9.00;;;6.20;;
22851;SDS011;11592;45.460;9.240;2022-09-01T02:03:28;7.28;;;5.68;;
22851;SDS011;11592;45.460;9.240;2022-09-01T02:06:08;8.98;;;6.38;;
22851;SDS011;11592;45.460;9.240;2022-09-01T02:08:37;9.00;;;5.65;;
22851;SDS011;11592;45.460;9.240;2022-09-01T02:11:06;7.05;;;5.53;;
22851;SDS011;11592;45.460;9.240;2022-09-01T02:13:33;7.95;;;5.30;;
22851;SDS011;11592;45.460;9.240;2022-09-01T02:16:03;7.82;;;5.50;;
22851;SDS011;11592;45.460;9.240;2022-09-01T02:18:40;8.90;;;5.90;;
22851;SDS011;11592;45.460;9.240;2022-09-01T02:21:15;6.68;;;5.82;;
22851;SDS011;11592;45.460;9.240;2022-09-01T02:23:46;8.95;;;5.22;;
22851;SDS011;11592;45.460;9.240;2022-09-01T02:26:24;7.13;;;5.28;;
22851;SDS011;11592;45.460;9.240;2022-09-01T02:28:58;6.07;;;5.40;;
22851;SDS011;11592;45.460;9.240;2022-09-01T02:31:33;8.63;;;5.70;;
22851;SDS011;11592;45.460;9.240;2022-09-01T02:34:01;8.77;;;5.57;;
22851;SDS011;11592;45.460;9.240;2022-09-01T02:36:29;12.60;;;5.70;;
22851;SDS011;11592;45.460;9.240;2022-09-01T02:39:00;6.60;;;5.88;;
22851;SDS011;11592;45.460;9.240;2022-09-01T02:41:26;8.07;;;6.50;;
22851;SDS011;11592;45.460;9.240;2022-09-01T02:43:54;7.93;;;6.57;;
22851;SDS011;11592;45.460;9.240;2022-09-01T02:46:22;9.85;;;6.35;;
22851;SDS011;11592;45.460;9.240;2022-09-01T02:48:50;10.52;;;6.60;;
22851;SDS011;11592;45.460;9.240;2022-09-01T02:51:18;9.43;;;7.07;;
22851;SDS011;11592;45.460;9.240;2022-09-01T02:53:47;9.63;;;7.38;;
22851;SDS011;11592;45.460;9.240;2022-09-01T02:56:21;8.52;;;6.35;;
22851;SDS011;11592;45.460;9.240;2022-09-01T02:58:51;10.77;;;6.32;;
22851;SDS011;11592;45.460;9.240;2022-09-01T03:01:23;7.72;;;5.70;;
22851;SDS011;11592;45.460;9.240;2022-09-01T03:03:57;8.85;;;5.97;;
22851;SDS011;11592;45.460;9.240;2022-09-01T03:06:26;8.85;;;5.28;;
22851;SDS011;11592;45.460;9.240;2022-09-01T03:08:55;8.63;;;5.30;;
22851;SDS011;11592;45.460;9.240;2022-09-01T03:11:30;8.82;;;5.75;;
22851;SDS011;11592;45.460;9.240;2022-09-01T03:13:58;7.05;;;5.28;;
22851;SDS011;11592;45.460;9.240;2022-09-01T03:16:25;6.30;;;4.78;;
22851;SDS011;11592;45.460;9.240;2022-09-01T03:18:52;7.57;;;4.93;;
22851;SDS011;11592;45.460;9.240;2022-09-01T03:21:19;6.05;;;4.32;;
22851;SDS011;11592;45.460;9.240;2022-09-01T03:23:47;10.32;;;4.82;;
22851;SDS011;11592;45.460;9.240;2022-09-01T03:26:16;8.50;;;5.03;;
22851;SDS011;11592;45.460;9.240;2022-09-01T03:28:46;5.22;;;4.50;;
22851;SDS011;11592;45.460;9.240;2022-09-01T03:31:14;6.45;;;4.50;;
22851;SDS011;11592;45.460;9.240;2022-09-01T03:33:42;7.10;;;5.03;;
22851;SDS011;11592;45.460;9.240;2022-09-01T03:36:08;6.00;;;4.70;;
22851;SDS011;11592;45.460;9.240;2022-09-01T03:38:47;9.52;;;4.95;;
22851;SDS011;11592;45.460;9.240;2022-09-01T03:41:17;5.82;;;4.70;;
22851;SDS011;11592;45.460;9.240;2022-09-01T03:43:47;6.68;;;4.20;;
22851;SDS011;11592;45.460;9.240;2022-09-01T03:46:15;5.60;;;4.10;;
22851;SDS011;11592;45.460;9.240;2022-09-01T03:48:47;7.72;;;4.43;;
22851;SDS011;11592;45.460;9.240;2022-09-01T03:51:22;5.80;;;3.95;;
22851;SDS011;11592;45.460;9.240;2022-09-01T03:53:51;6.43;;;4.43;;
22851;SDS011;11592;45.460;9.240;2022-09-01T03:56:25;6.18;;;4.32;;
22851;SDS011;11592;45.460;9.240;2022-09-01T03:58:54;5.80;;;4.72;;
22851;SDS011;11592;45.460;9.240;2022-09-01T04:01:24;6.38;;;4.88;;
22851;SDS011;11592;45.460;9.240;2022-09-01T04:03:52;5.28;;;4.35;;
22851;SDS011;11592;45.460;9.240;2022-09-01T04:06:19;6.63;;;4.05;;
22851;SDS011;11592;45.460;9.240;2022-09-01T04:08:49;4.95;;;4.30;;
22851;SDS011;11592;45.460;9.240;2022-09-01T04:11:20;6.70;;;4.25;;
22851;SDS011;11592;45.460;9.240;2022-09-01T04:13:49;7.30;;;4.30;;
22851;SDS011;11592;45.460;9.240;2022-09-01T04:16:20;6.97;;;4.70;;
22851;SDS011;11592;45.460;9.240;2022-09-01T04:19:11;7.90;;;4.55;;
22851;SDS011;11592;45.460;9.240;2022-09-01T04:21:47;6.70;;;4.40;;
22851;SDS011;11592;45.460;9.240;2022-09-01T04:24:19;9.02;;;4.95;;
22851;SDS011;11592;45.460;9.240;2022-09-01T04:26:50;8.82;;;5.13;;
22851;SDS011;11592;45.460;9.240;2022-09-01T04:29:18;8.70;;;5.15;;
22851;SDS011;11592;45.460;9.240;2022-09-01T04:31:56;6.77;;;4.47;;
22851;SDS011;11592;45.460;9.240;2022-09-01T04:34:28;7.80;;;5.40;;
22851;SDS011;11592;45.460;9.240;2022-09-01T04:37:06;7.07;;;5.00;;
22851;SDS011;11592;45.460;9.240;2022-09-01T04:39:38;9.15;;;5.95;;
22851;SDS011;11592;45.460;9.240;2022-09-01T04:42:19;8.48;;;5.32;;
22851;SDS011;11592;45.460;9.240;2022-09-01T04:44:49;8.55;;;5.80;;
22851;SDS011;11592;45.460;9.240;2022-09-01T04:47:18;9.60;;;5.72;;
22851;SDS011;11592;45.460;9.240;2022-09-01T04:50:00;8.60;;;6.20;;
22851;SDS011;11592;45.460;9.240;2022-09-01T04:52:29;8.15;;;5.80;;
22851;SDS011;11592;45.460;9.240;2022-09-01T04:54:57;7.85;;;5.78;;
22851;SDS011;11592;45.460;9.240;2022-09-01T04:57:23;10.45;;;5.80;;
22851;SDS011;11592;45.460;9.240;2022-09-01T04:59:53;8.80;;;5.75;;
22851;SDS011;11592;45.460;9.240;2022-09-01T05:02:21;6.90;;;5.45;;
22851;SDS011;11592;45.460;9.240;2022-09-01T05:04:52;10.20;;;6.57;;
22851;SDS011;11592;45.460;9.240;2022-09-01T05:07:20;9.70;;;6.93;;
22851;SDS011;11592;45.460;9.240;2022-09-01T05:09:46;8.68;;;6.07;;
22851;SDS011;11592;45.460;9.240;2022-09-01T05:12:14;9.80;;;6.75;;
22851;SDS011;11592;45.460;9.240;2022-09-01T05:14:43;12.90;;;6.18;;
22851;SDS011;11592;45.460;9.240;2022-09-01T05:17:13;13.70;;;7.13;;
22851;SDS011;11592;45.460;9.240;2022-09-01T05:19:43;11.05;;;6.60;;
22851;SDS011;11592;45.460;9.240;2022-09-01T05:22:13;14.13;;;7.40;;
22851;SDS011;11592;45.460;9.240;2022-09-01T05:24:40;15.20;;;7.55;;
22851;SDS011;11592;45.460;9.240;2022-09-01T05:27:07;13.07;;;8.32;;
22851;SDS011;11592;45.460;9.240;2022-09-01T05:29:36;11.73;;;7.10;;
22851;SDS011;11592;45.460;9.240;2022-09-01T05:32:05;11.05;;;7.07;;
22851;SDS011;11592;45.460;9.240;2022-09-01T05:34:35;10.48;;;7.03;;
22851;SDS011;11592;45.460;9.240;2022-09-01T05:37:04;17.85;;;7.38;;
22851;SDS011;11592;45.460;9.240;2022-09-01T05:39:33;11.57;;;7.25;;
22851;SDS011;11592;45.460;9.240;2022-09-01T05:42:03;10.52;;;6.80;;
22851;SDS011;11592;45.460;9.240;2022-09-01T05:44:33;9.85;;;6.97;;
22851;SDS011;11592;45.460;9.240;2022-09-01T05:47:01;10.98;;;6.35;;
22851;SDS011;11592;45.460;9.240;2022-09-01T05:49:30;8.32;;;6.18;;
22851;SDS011;11592;45.460;9.240;2022-09-01T05:51:58;12.20;;;6.57;;
22851;SDS011;11592;45.460;9.240;2022-09-01T05:54:25;9.38;;;6.72;;
22851;SDS011;11592;45.460;9.240;2022-09-01T05:56:53;11.10;;;5.78;;
22851;SDS011;11592;45.460;9.240;2022-09-01T05:59:42;9.60;;;5.20;;
22851;SDS011;11592;45.460;9.240;2022-09-01T06:02:12;7.90;;;4.90;;
22851;SDS011;11592;45.460;9.240;2022-09-01T06:04:39;7.32;;;5.60;;
22851;SDS011;11592;45.460;9.240;2022-09-01T06:07:12;8.05;;;5.63;;
22851;SDS011;11592;45.460;9.240;2022-09-01T06:09:46;6.70;;;4.90;;
22851;SDS011;11592;45.460;9.240;2022-09-01T06:12:14;7.50;;;4.65;;
22851;SDS011;11592;45.460;9.240;2022-09-01T06:14:49;10.20;;;4.40;;
22851;SDS011;11592;45.460;9.240;2022-09-01T06:17:19;8.73;;;4.32;;
22851;SDS011;11592;45.460;9.240;2022-09-01T06:19:51;7.55;;;4.68;;
22851;SDS011;11592;45.460;9.240;2022-09-01T06:22:20;8.82;;;3.92;;
22851;SDS011;11592;45.460;9.240;2022-09-01T06:24:49;7.55;;;4.43;;
22851;SDS011;11592;45.460;9.240;2022-09-01T06:27:26;4.65;;;3.80;;
22851;SDS011;11592;45.460;9.240;2022-09-01T06:29:52;6.82;;;3.47;;
22851;SDS011;11592;45.460;9.240;2022-09-01T06:32:19;5.68;;;3.08;;
22851;SDS011;11592;45.460;9.240;2022-09-01T06:34:46;7.20;;;3.50;;
22851;SDS011;11592;45.460;9.240;2022-09-01T06:37:16;5.63;;;2.83;;
22851;SDS011;11592;45.460;9.240;2022-09-01T06:39:48;4.28;;;3.10;;
22851;SDS011;11592;45.460;9.240;2022-09-01T06:42:15;5.50;;;2.78;;
22851;SDS011;11592;45.460;9.240;2022-09-01T06:44:44;4.60;;;3.15;;
22851;SDS011;11592;45.460;9.240;2022-09-01T06:47:11;5.88;;;3.45;;
22851;SDS011;11592;45.460;9.240;2022-09-01T06:49:40;4.53;;;3.00;;
22851;SDS011;11592;45.460;9.240;2022-09-01T06:52:07;4.15;;;3.00;;
22851;SDS011;11592;45.460;9.240;2022-09-01T06:54:34;5.20;;;3.45;;
22851;SDS011;11592;45.460;9.240;2022-09-01T06:57:04;5.95;;;3.20;;
22851;SDS011;11592;45.460;9.240;2022-09-01T06:59:51;5.57;;;3.35;;
22851;SDS011;11592;45.460;9.240;2022-09-01T07:02:19;7.35;;;3.90;;
22851;SDS011;11592;45.460;9.240;2022-09-01T07:04:51;4.18;;;2.72;;
22851;SDS011;11592;45.460;9.240;2022-09-01T07:07:18;5.95;;;3.20;;
22851;SDS011;11592;45.460;9.240;2022-09-01T07:10:07;5.55;;;3.15;;
22851;SDS011;11592;45.460;9.240;2022-09-01T07:12:51;4.25;;;2.90;;
22851;SDS011;11592;45.460;9.240;2022-09-01T07:15:39;3.80;;;2.60;;
22851;SDS011;11592;45.460;9.240;2022-09-01T07:18:28;5.97;;;2.50;;
22851;SDS011;11592;45.460;9.240;2022-09-01T07:20:56;3.47;;;2.28;;
22851;SDS011;11592;45.460;9.240;2022-09-01T07:23:43;3.33;;;2.30;;
22851;SDS011;11592;45.460;9.240;2022-09-01T07:26:14;4.20;;;2.38;;
22851;SDS011;11592;45.460;9.240;2022-09-01T07:28:51;2.85;;;2.22;;
22851;SDS011;11592;45.460;9.240;2022-09-01T07:31:27;3.65;;;2.35;;
22851;SDS011;11592;45.460;9.240;2022-09-01T07:34:16;3.40;;;2.53;;
22851;SDS011;11592;45.460;9.240;2022-09-01T07:37:04;4.32;;;2.47;;
22851;SDS011;11592;45.460;9.240;2022-09-01T07:39:51;3.63;;;2.42;;
22851;SDS011;11592;45.460;9.240;2022-09-01T07:42:19;4.00;;;3.05;;
22851;SDS011;11592;45.460;9.240;2022-09-01T07:45:06;4.28;;;2.85;;
22851;SDS011;11592;45.460;9.240;2022-09-01T07:47:51;7.35;;;2.90;;
22851;SDS011;11592;45.460;9.240;2022-09-01T07:50:19;5.40;;;2.90;;
22851;SDS011;11592;45.460;9.240;2022-09-01T07:53:06;4.95;;;2.58;;
22851;SDS011;11592;45.460;9.240;2022-09-01T07:55:34;6.00;;;3.08;;
22851;SDS011;11592;45.460;9.240;2022-09-01T07:58:05;4.28;;;3.10;;
22851;SDS011;11592;45.460;9.240;2022-09-01T08:00:31;3.78;;;2.90;;
22851;SDS011;11592;45.460;9.240;2022-09-01T08:02:59;4.88;;;3.10;;
22851;SDS011;11592;45.460;9.240;2022-09-01T08:05:26;6.43;;;3.00;;
22851;SDS011;11592;45.460;9.240;2022-09-01T08:07:53;7.00;;;3.47;;
22851;SDS011;11592;45.460;9.240;2022-09-01T08:10:20;9.10;;;3.42;;
22851;SDS011;11592;45.460;9.240;2022-09-01T08:12:47;5.72;;;3.47;;
22851;SDS011;11592;45.460;9.240;2022-09-01T08:15:22;7.45;;;4.30;;
22851;SDS011;11592;45.460;9.240;2022-09-01T08:18:10;11.45;;;4.25;;
22851;SDS011;11592;45.460;9.240;2022-09-01T08:20:43;7.35;;;4.20;;
22851;SDS011;11592;45.460;9.240;2022-09-01T08:23:14;8.43;;;4.03;;
22851;SDS011;11592;45.460;9.240;2022-09-01T08:25:45;7.53;;;4.25;;
22851;SDS011;11592;45.460;9.240;2022-09-01T08:28:13;7.15;;;4.60;;
22851;SDS011;11592;45.460;9.240;2022-09-01T08:30:41;9.93;;;5.95;;
22851;SDS011;11592;45.460;9.240;2022-09-01T08:33:18;5.15;;;4.22;;
22851;SDS011;11592;45.460;9.240;2022-09-01T08:35:45;6.05;;;4.15;;
22851;SDS011;11592;45.460;9.240;2022-09-01T08:38:13;11.35;;;6.47;;
22851;SDS011;11592;45.460;9.240;2022-09-01T08:40:41;9.40;;;6.60;;
22851;SDS011;11592;45.460;9.240;2022-09-01T08:46:13;9.98;;;7.15;;
22851;SDS011;11592;45.460;9.240;2022-09-01T08:49:00;10.13;;;6.63;;
22851;SDS011;11592;45.460;9.240;2022-09-01T08:51:52;12.70;;;7.32;;
22851;SDS011;11592;45.460;9.240;2022-09-01T08:54:41;9.18;;;6.40;;
22851;SDS011;11592;45.460;9.240;2022-09-01T08:57:45;11.70;;;6.30;;
22851;SDS011;11592;45.460;9.240;2022-09-01T09:00:08;10.60;;;6.32;;
22851;SDS011;11592;45.460;9.240;2022-09-01T09:16:01;11.38;;;6.75;;
22851;SDS011;11592;45.460;9.240;2022-09-01T09:21:44;9.43;;;6.70;;
22851;SDS011;11592;45.460;9.240;2022-09-01T09:27:19;13.25;;;7.18;;
22851;SDS011;11592;45.460;9.240;2022-09-01T09:30:23;9.95;;;6.03;;
22851;SDS011;11592;45.460;9.240;2022-09-01T09:32:56;11.97;;;5.97;;
22851;SDS011;11592;45.460;9.240;2022-09-01T09:35:51;8.57;;;5.38;;
22851;SDS011;11592;45.460;9.240;2022-09-01T09:38:21;8.77;;;5.20;;
22851;SDS011;11592;45.460;9.240;2022-09-01T09:41:00;9.65;;;5.18;;
22851;SDS011;11592;45.460;9.240;2022-09-01T09:43:47;6.47;;;5.10;;
22851;SDS011;11592;45.460;9.240;2022-09-01T09:46:35;6.97;;;5.10;;
22851;SDS011;11592;45.460;9.240;2022-09-01T09:49:21;9.73;;;5.57;;
22851;SDS011;11592;45.460;9.240;2022-09-01T09:54:57;6.63;;;4.90;;
22851;SDS011;11592;45.460;9.240;2022-09-01T09:57:26;10.27;;;4.95;;
22851;SDS011;11592;45.460;9.240;2022-09-01T10:03:08;7.00;;;5.47;;
22851;SDS011;11592;45.460;9.240;2022-09-01T10:05:45;9.40;;;5.68;;
22851;SDS011;11592;45.460;9.240;2022-09-01T10:10:53;7.23;;;5.67;;
22851;SDS011;11592;45.460;9.240;2022-09-01T10:13:23;8.32;;;5.43;;
22851;SDS011;11592;45.460;9.240;2022-09-01T10:15:53;9.32;;;6.13;;
22851;SDS011;11592;45.460;9.240;2022-09-01T10:18:23;8.30;;;6.05;;
22851;SDS011;11592;45.460;9.240;2022-09-01T10:23:23;5.80;;;5.15;;
22851;SDS011;11592;45.460;9.240;2022-09-01T10:25:59;9.25;;;5.97;;
22851;SDS011;11592;45.460;9.240;2022-09-01T10:28:56;8.55;;;5.07;;
22851;SDS011;11592;45.460;9.240;2022-09-01T10:31:32;6.93;;;5.75;;
22851;SDS011;11592;45.460;9.240;2022-09-01T10:34:00;8.30;;;4.68;;
22851;SDS011;11592;45.460;9.240;2022-09-01T10:36:31;7.32;;;5.40;;
22851;SDS011;11592;45.460;9.240;2022-09-01T10:39:00;13.43;;;8.02;;
22851;SDS011;11592;45.460;9.240;2022-09-01T10:44:35;9.10;;;6.72;;
22851;SDS011;11592;45.460;9.240;2022-09-01T10:47:26;10.95;;;7.70;;
22851;SDS011;11592;45.460;9.240;2022-09-01T10:50:00;13.32;;;8.30;;
22851;SDS011;11592;45.460;9.240;2022-09-01T10:55:12;9.40;;;6.97;;
22851;SDS011;11592;45.460;9.240;2022-09-01T11:13:56;6.28;;;4.10;;
22851;SDS011;11592;45.460;9.240;2022-09-01T11:19:31;6.72;;;4.05;;
22851;SDS011;11592;45.460;9.240;2022-09-01T11:25:05;7.13;;;4.00;;
22851;SDS011;11592;45.460;9.240;2022-09-01T11:28:34;7.00;;;4.10;;
22851;SDS011;11592;45.460;9.240;2022-09-01T11:36:31;9.93;;;4.88;;
22851;SDS011;11592;45.460;9.240;2022-09-01T11:41:58;6.45;;;4.55;;
22851;SDS011;11592;45.460;9.240;2022-09-01T11:47:41;7.22;;;5.05;;
22851;SDS011;11592;45.460;9.240;2022-09-01T11:52:41;6.07;;;4.55;;
22851;SDS011;11592;45.460;9.240;2022-09-01T11:57:54;5.85;;;4.50;;
22851;SDS011;11592;45.460;9.240;2022-09-01T12:00:26;4.30;;;3.90;;
22851;SDS011;11592;45.460;9.240;2022-09-01T12:02:56;5.10;;;4.30;;
22851;SDS011;11592;45.460;9.240;2022-09-01T12:05:27;6.57;;;3.65;;
22851;SDS011;11592;45.460;9.240;2022-09-01T12:08:04;6.95;;;3.70;;
22851;SDS011;11592;45.460;9.240;2022-09-01T12:10:39;5.30;;;3.55;;
22851;SDS011;11592;45.460;9.240;2022-09-01T12:13:17;6.25;;;3.72;;
22851;SDS011;11592;45.460;9.240;2022-09-01T12:15:54;8.77;;;5.15;;
22851;SDS011;11592;45.460;9.240;2022-09-01T12:18:43;6.68;;;3.67;;
22851;SDS011;11592;45.460;9.240;2022-09-01T12:21:21;7.93;;;5.07;;
22851;SDS011;11592;45.460;9.240;2022-09-01T12:23:53;5.53;;;3.88;;
22851;SDS011;11592;45.460;9.240;2022-09-01T12:26:34;4.15;;;3.25;;
22851;SDS011;11592;45.460;9.240;2022-09-01T12:29:01;4.10;;;2.60;;
22851;SDS011;11592;45.460;9.240;2022-09-01T12:31:29;5.13;;;2.90;;
22851;SDS011;11592;45.460;9.240;2022-09-01T12:33:56;3.80;;;2.58;;
22851;SDS011;11592;45.460;9.240;2022-09-01T12:38:56;5.07;;;3.55;;
22851;SDS011;11592;45.460;9.240;2022-09-01T12:41:43;5.25;;;4.15;;
22851;SDS011;11592;45.460;9.240;2022-09-01T12:44:25;4.15;;;2.85;;
22851;SDS011;11592;45.460;9.240;2022-09-01T12:47:08;4.88;;;2.80;;
22851;SDS011;11592;45.460;9.240;2022-09-01T12:49:42;5.13;;;2.70;;
22851;SDS011;11592;45.460;9.240;2022-09-01T12:54:49;2.97;;;2.05;;
22851;SDS011;11592;45.460;9.240;2022-09-01T12:57:37;3.70;;;2.17;;
22851;SDS011;11592;45.460;9.240;2022-09-01T13:02:42;2.88;;;2.08;;
22851;SDS011;11592;45.460;9.240;2022-09-01T13:07:54;2.50;;;2.13;;
22851;SDS011;11592;45.460;9.240;2022-09-01T13:10:23;2.38;;;2.00;;
22851;SDS011;11592;45.460;9.240;2022-09-01T13:12:53;5.10;;;2.38;;
22851;SDS011;11592;45.460;9.240;2022-09-01T13:15:23;4.35;;;2.30;;
22851;SDS011;11592;45.460;9.240;2022-09-01T13:17:51;2.28;;;2.08;;
22851;SDS011;11592;45.460;9.240;2022-09-01T13:20:18;4.65;;;2.30;;
22851;SDS011;11592;45.460;9.240;2022-09-01T13:22:45;5.18;;;2.38;;
22851;SDS011;11592;45.460;9.240;2022-09-01T13:25:13;4.57;;;2.60;;
22851;SDS011;11592;45.460;9.240;2022-09-01T13:27:43;2.70;;;2.20;;
22851;SDS011;11592;45.460;9.240;2022-09-01T13:30:16;5.40;;;3.00;;
22851;SDS011;11592;45.460;9.240;2022-09-01T13:32:45;3.10;;;2.53;;
22851;SDS011;11592;45.460;9.240;2022-09-01T13:35:32;3.65;;;2.13;;
22851;SDS011;11592;45.460;9.240;2022-09-01T13:37:59;6.75;;;2.90;;
22851;SDS011;11592;45.460;9.240;2022-09-01T13:40:26;3.63;;;2.38;;
22851;SDS011;11592;45.460;9.240;2022-09-01T13:42:53;4.65;;;2.17;;
22851;SDS011;11592;45.460;9.240;2022-09-01T13:45:21;4.40;;;2.40;;
22851;SDS011;11592;45.460;9.240;2022-09-01T13:47:50;3.22;;;1.90;;
22851;SDS011;11592;45.460;9.240;2022-09-01T13:50:45;3.20;;;2.13;;
22851;SDS011;11592;45.460;9.240;2022-09-01T13:53:37;6.28;;;2.13;;
22851;SDS011;11592;45.460;9.240;2022-09-01T13:56:04;5.85;;;2.53;;
22851;SDS011;11592;45.460;9.240;2022-09-01T13:58:31;8.98;;;2.42;;
22851;SDS011;11592;45.460;9.240;2022-09-01T14:00:58;3.58;;;2.17;;
22851;SDS011;11592;45.460;9.240;2022-09-01T14:03:25;3.55;;;2.70;;
22851;SDS011;11592;45.460;9.240;2022-09-01T14:05:52;2.20;;;2.00;;
22851;SDS011;11592;45.460;9.240;2022-09-01T14:08:19;3.05;;;2.00;;
22851;SDS011;11592;45.460;9.240;2022-09-01T14:10:48;3.67;;;2.53;;
22851;SDS011;11592;45.460;9.240;2022-09-01T14:13:21;2.78;;;1.77;;
22851;SDS011;11592;45.460;9.240;2022-09-01T14:15:49;2.50;;;2.00;;
22851;SDS011;11592;45.460;9.240;2022-09-01T14:18:19;2.13;;;1.63;;
22851;SDS011;11592;45.460;9.240;2022-09-01T14:20:48;2.88;;;1.58;;
22851;SDS011;11592;45.460;9.240;2022-09-01T14:23:16;2.10;;;1.52;;
22851;SDS011;11592;45.460;9.240;2022-09-01T14:25:45;2.97;;;2.17;;
22851;SDS011;11592;45.460;9.240;2022-09-01T14:28:14;3.65;;;2.00;;
22851;SDS011;11592;45.460;9.240;2022-09-01T14:30:45;1.73;;;1.60;;
22851;SDS011;11592;45.460;9.240;2022-09-01T14:33:13;3.05;;;1.55;;
22851;SDS011;11592;45.460;9.240;2022-09-01T14:35:43;2.40;;;1.42;;
22851;SDS011;11592;45.460;9.240;2022-09-01T14:38:12;1.70;;;1.60;;
22851;SDS011;11592;45.460;9.240;2022-09-01T14:40:40;2.10;;;1.38;;
22851;SDS011;11592;45.460;9.240;2022-09-01T14:43:09;1.73;;;1.25;;
22851;SDS011;11592;45.460;9.240;2022-09-01T14:45:40;1.50;;;1.30;;
22851;SDS011;11592;45.460;9.240;2022-09-01T14:48:13;2.40;;;1.55;;
22851;SDS011;11592;45.460;9.240;2022-09-01T14:50:43;2.00;;;1.40;;
22851;SDS011;11592;45.460;9.240;2022-09-01T14:53:13;2.17;;;1.27;;
22851;SDS011;11592;45.460;9.240;2022-09-01T14:55:40;1.23;;;1.10;;
22851;SDS011;11592;45.460;9.240;2022-09-01T14:58:09;3.40;;;1.58;;
22851;SDS011;11592;45.460;9.240;2022-09-01T15:00:36;2.38;;;1.20;;
22851;SDS011;11592;45.460;9.240;2022-09-01T15:03:04;2.25;;;1.30;;
22851;SDS011;11592;45.460;9.240;2022-09-01T15:05:31;1.52;;;1.17;;
22851;SDS011;11592;45.460;9.240;2022-09-01T15:08:05;3.67;;;1.20;;
22851;SDS011;11592;45.460;9.240;2022-09-01T15:10:33;3.90;;;1.20;;
22851;SDS011;11592;45.460;9.240;2022-09-01T15:13:01;3.42;;;1.35;;
22851;SDS011;11592;45.460;9.240;2022-09-01T15:15:30;3.45;;;0.93;;
22851;SDS011;11592;45.460;9.240;2022-09-01T15:17:58;1.20;;;1.10;;
22851;SDS011;11592;45.460;9.240;2022-09-01T15:20:26;1.95;;;1.00;;
22851;SDS011;11592;45.460;9.240;2022-09-01T15:23:13;1.35;;;0.98;;
22851;SDS011;11592;45.460;9.240;2022-09-01T15:25:44;1.10;;;0.80;;
22851;SDS011;11592;45.460;9.240;2022-09-01T15:28:11;1.52;;;1.20;;
22851;SDS011;11592;45.460;9.240;2022-09-01T15:30:39;1.38;;;1.00;;
22851;SDS011;11592;45.460;9.240;2022-09-01T15:33:07;1.05;;;0.95;;
22851;SDS011;11592;45.460;9.240;2022-09-01T15:35:40;2.22;;;1.10;;
22851;SDS011;11592;45.460;9.240;2022-09-01T15:38:08;2.13;;;0.90;;
22851;SDS011;11592;45.460;9.240;2022-09-01T15:40:41;1.55;;;0.80;;
22851;SDS011;11592;45.460;9.240;2022-09-01T15:43:08;1.60;;;1.00;;
22851;SDS011;11592;45.460;9.240;2022-09-01T15:45:36;3.00;;;0.90;;
22851;SDS011;11592;45.460;9.240;2022-09-01T15:48:04;2.40;;;1.10;;
22851;SDS011;11592;45.460;9.240;2022-09-01T15:50:31;2.58;;;0.90;;
22851;SDS011;11592;45.460;9.240;2022-09-01T15:53:01;1.90;;;1.00;;
22851;SDS011;11592;45.460;9.240;2022-09-01T15:55:40;0.93;;;0.90;;
22851;SDS011;11592;45.460;9.240;2022-09-01T15:58:09;1.35;;;1.00;;
22851;SDS011;11592;45.460;9.240;2022-09-01T16:00:39;1.98;;;1.33;;
22851;SDS011;11592;45.460;9.240;2022-09-01T16:03:07;1.75;;;1.42;;
22851;SDS011;11592;45.460;9.240;2022-09-01T16:05:35;2.42;;;1.17;;
22851;SDS011;11592;45.460;9.240;2022-09-01T16:08:04;1.55;;;1.13;;
22851;SDS011;11592;45.460;9.240;2022-09-01T16:10:35;4.40;;;1.35;;
22851;SDS011;11592;45.460;9.240;2022-09-01T16:13:05;1.38;;;1.15;;
22851;SDS011;11592;45.460;9.240;2022-09-01T16:15:33;3.22;;;1.30;;
22851;SDS011;11592;45.460;9.240;2022-09-01T16:23:41;2.28;;;1.10;;
22851;SDS011;11592;45.460;9.240;2022-09-01T16:26:14;10.27;;;1.63;;
22851;SDS011;11592;45.460;9.240;2022-09-01T16:28:44;3.75;;;1.60;;
22851;SDS011;11592;45.460;9.240;2022-09-01T16:31:15;2.25;;;1.50;;
22851;SDS011;11592;45.460;9.240;2022-09-01T16:33:47;1.77;;;1.02;;
22851;SDS011;11592;45.460;9.240;2022-09-01T16:38:45;1.15;;;0.80;;
22851;SDS011;11592;45.460;9.240;2022-09-01T16:44:04;1.45;;;1.02;;
22851;SDS011;11592;45.460;9.240;2022-09-01T16:46:39;1.85;;;1.00;;
22851;SDS011;11592;45.460;9.240;2022-09-01T16:52:16;2.00;;;1.08;;
22851;SDS011;11592;45.460;9.240;2022-09-01T17:03:33;1.58;;;0.80;;
22851;SDS011;11592;45.460;9.240;2022-09-01T17:06:29;1.73;;;1.10;;
22851;SDS011;11592;45.460;9.240;2022-09-01T17:09:09;4.15;;;1.73;;
22851;SDS011;11592;45.460;9.240;2022-09-01T17:12:11;1.75;;;0.95;;
22851;SDS011;11592;45.460;9.240;2022-09-01T17:14:44;1.27;;;0.80;;
22851;SDS011;11592;45.460;9.240;2022-09-01T17:17:20;2.88;;;1.50;;